sensor_id;sensor_type;location;lat;lon;timestamp;P1;durP1;ratioP1;P2;durP2;ratioP2
49123;SDS011;48506;48.202;16.274;2023-04-12T00:00:33;4.25;;;2.15;;
49123;SDS011;48506;48.202;16.274;2023-04-12T00:03:01;9.45;;;2.20;;
49123;SDS011;48506;48.202;16.274;2023-04-12T00:05:30;3.63;;;2.00;;
49123;SDS011;48506;48.202;16.274;2023-04-12T00:07:56;4.72;;;2.42;;
49123;SDS011;48506;48.202;16.274;2023-04-12T00:10:22;4.30;;;1.80;;
49123;SDS011;48506;48.202;16.274;2023-04-12T00:12:48;5.55;;;2.40;;
49123;SDS011;48506;48.202;16.274;2023-04-12T00:15:14;5.25;;;2.33;;
49123;SDS011;48506;48.202;16.274;2023-04-12T00:17:40;2.97;;;2.08;;
49123;SDS011;48506;48.202;16.274;2023-04-12T00:20:07;7.20;;;2.25;;
49123;SDS011;48506;48.202;16.274;2023-04-12T00:22:38;3.65;;;2.17;;
49123;SDS011;48506;48.202;16.274;2023-04-12T00:25:08;3.53;;;1.80;;
49123;SDS011;48506;48.202;16.274;2023-04-12T00:27:35;5.18;;;2.28;;
49123;SDS011;48506;48.202;16.274;2023-04-12T00:30:01;4.65;;;2.08;;
49123;SDS011;48506;48.202;16.274;2023-04-12T00:32:28;3.53;;;2.67;;
49123;SDS011;48506;48.202;16.274;2023-04-12T00:34:53;3.15;;;2.10;;
49123;SDS011;48506;48.202;16.274;2023-04-12T00:37:19;4.03;;;2.17;;
49123;SDS011;48506;48.202;16.274;2023-04-12T00:39:45;5.75;;;2.80;;
49123;SDS011;48506;48.202;16.274;2023-04-12T00:42:13;2.63;;;1.70;;
49123;SDS011;48506;48.202;16.274;2023-04-12T00:44:39;3.78;;;2.40;;
49123;SDS011;48506;48.202;16.274;2023-04-12T00:47:05;3.35;;;2.10;;
49123;SDS011;48506;48.202;16.274;2023-04-12T00:49:32;5.35;;;3.10;;
49123;SDS011;48506;48.202;16.274;2023-04-12T00:52:03;4.82;;;2.35;;
49123;SDS011;48506;48.202;16.274;2023-04-12T00:54:32;7.20;;;3.70;;
49123;SDS011;48506;48.202;16.274;2023-04-12T00:57:02;4.30;;;2.45;;
49123;SDS011;48506;48.202;16.274;2023-04-12T00:59:28;3.72;;;2.55;;
49123;SDS011;48506;48.202;16.274;2023-04-12T01:01:54;5.32;;;2.90;;
49123;SDS011;48506;48.202;16.274;2023-04-12T01:04:21;6.32;;;2.63;;
49123;SDS011;48506;48.202;16.274;2023-04-12T01:15:11;5.30;;;2.50;;
49123;SDS011;48506;48.202;16.274;2023-04-12T01:17:51;3.25;;;2.40;;
49123;SDS011;48506;48.202;16.274;2023-04-12T01:20:24;6.32;;;2.72;;
49123;SDS011;48506;48.202;16.274;2023-04-12T01:28:57;3.28;;;2.20;;
49123;SDS011;48506;48.202;16.274;2023-04-12T01:31:25;5.00;;;2.55;;
49123;SDS011;48506;48.202;16.274;2023-04-12T01:33:53;3.50;;;2.65;;
49123;SDS011;48506;48.202;16.274;2023-04-12T01:36:21;4.90;;;2.53;;
49123;SDS011;48506;48.202;16.274;2023-04-12T01:38:48;7.82;;;2.83;;
49123;SDS011;48506;48.202;16.274;2023-04-12T01:41:15;5.85;;;2.42;;
49123;SDS011;48506;48.202;16.274;2023-04-12T01:43:41;5.25;;;2.85;;
49123;SDS011;48506;48.202;16.274;2023-04-12T01:46:09;4.07;;;2.00;;
49123;SDS011;48506;48.202;16.274;2023-04-12T01:48:37;6.10;;;2.70;;
49123;SDS011;48506;48.202;16.274;2023-04-12T01:51:04;5.10;;;2.58;;
49123;SDS011;48506;48.202;16.274;2023-04-12T01:53:37;5.07;;;2.88;;
49123;SDS011;48506;48.202;16.274;2023-04-12T01:56:12;5.82;;;2.70;;
49123;SDS011;48506;48.202;16.274;2023-04-12T01:58:41;3.10;;;2.57;;
49123;SDS011;48506;48.202;16.274;2023-04-12T02:01:09;6.00;;;2.42;;
49123;SDS011;48506;48.202;16.274;2023-04-12T02:03:40;5.20;;;2.53;;
49123;SDS011;48506;48.202;16.274;2023-04-12T02:06:07;3.72;;;2.67;;
49123;SDS011;48506;48.202;16.274;2023-04-12T02:08:33;5.43;;;2.67;;
49123;SDS011;48506;48.202;16.274;2023-04-12T02:11:06;4.38;;;3.08;;
49123;SDS011;48506;48.202;16.274;2023-04-12T02:13:33;5.53;;;2.45;;
49123;SDS011;48506;48.202;16.274;2023-04-12T02:15:59;4.57;;;2.85;;
49123;SDS011;48506;48.202;16.274;2023-04-12T02:18:26;6.43;;;3.15;;
49123;SDS011;48506;48.202;16.274;2023-04-12T02:20:53;6.90;;;3.38;;
49123;SDS011;48506;48.202;16.274;2023-04-12T02:23:19;5.43;;;3.30;;
49123;SDS011;48506;48.202;16.274;2023-04-12T02:25:45;3.95;;;2.80;;
49123;SDS011;48506;48.202;16.274;2023-04-12T02:28:12;4.78;;;2.55;;
49123;SDS011;48506;48.202;16.274;2023-04-12T02:30:38;4.38;;;3.03;;
49123;SDS011;48506;48.202;16.274;2023-04-12T02:33:06;4.20;;;3.28;;
49123;SDS011;48506;48.202;16.274;2023-04-12T02:35:33;4.68;;;2.45;;
49123;SDS011;48506;48.202;16.274;2023-04-12T02:38:01;8.30;;;3.38;;
49123;SDS011;48506;48.202;16.274;2023-04-12T02:40:40;9.20;;;3.33;;
49123;SDS011;48506;48.202;16.274;2023-04-12T02:43:07;5.03;;;3.38;;
49123;SDS011;48506;48.202;16.274;2023-04-12T02:45:33;4.88;;;2.60;;
49123;SDS011;48506;48.202;16.274;2023-04-12T02:48:00;5.38;;;3.30;;
49123;SDS011;48506;48.202;16.274;2023-04-12T02:50:26;5.75;;;2.95;;
49123;SDS011;48506;48.202;16.274;2023-04-12T02:52:52;5.70;;;2.78;;
49123;SDS011;48506;48.202;16.274;2023-04-12T02:55:18;6.68;;;2.42;;
49123;SDS011;48506;48.202;16.274;2023-04-12T02:57:44;5.68;;;3.15;;
49123;SDS011;48506;48.202;16.274;2023-04-12T03:00:10;7.13;;;2.67;;
49123;SDS011;48506;48.202;16.274;2023-04-12T03:02:37;4.15;;;2.65;;
49123;SDS011;48506;48.202;16.274;2023-04-12T03:05:03;6.35;;;2.58;;
49123;SDS011;48506;48.202;16.274;2023-04-12T03:07:31;6.93;;;2.95;;
49123;SDS011;48506;48.202;16.274;2023-04-12T03:09:57;5.32;;;2.50;;
49123;SDS011;48506;48.202;16.274;2023-04-12T03:12:23;6.00;;;2.97;;
49123;SDS011;48506;48.202;16.274;2023-04-12T03:14:49;4.32;;;2.90;;
49123;SDS011;48506;48.202;16.274;2023-04-12T03:17:15;8.43;;;3.75;;
49123;SDS011;48506;48.202;16.274;2023-04-12T03:19:41;4.70;;;2.63;;
49123;SDS011;48506;48.202;16.274;2023-04-12T03:22:07;3.47;;;2.85;;
49123;SDS011;48506;48.202;16.274;2023-04-12T03:24:33;4.70;;;2.53;;
49123;SDS011;48506;48.202;16.274;2023-04-12T03:27:02;3.38;;;2.30;;
49123;SDS011;48506;48.202;16.274;2023-04-12T03:29:30;6.95;;;2.83;;
49123;SDS011;48506;48.202;16.274;2023-04-12T03:31:56;3.70;;;2.50;;
49123;SDS011;48506;48.202;16.274;2023-04-12T03:34:24;4.47;;;2.90;;
49123;SDS011;48506;48.202;16.274;2023-04-12T03:36:57;6.22;;;2.88;;
49123;SDS011;48506;48.202;16.274;2023-04-12T03:39:25;4.55;;;2.22;;
49123;SDS011;48506;48.202;16.274;2023-04-12T03:41:51;4.18;;;2.40;;
49123;SDS011;48506;48.202;16.274;2023-04-12T03:44:17;4.78;;;2.33;;
49123;SDS011;48506;48.202;16.274;2023-04-12T03:46:43;5.03;;;2.25;;
49123;SDS011;48506;48.202;16.274;2023-04-12T03:49:10;3.45;;;2.42;;
49123;SDS011;48506;48.202;16.274;2023-04-12T03:51:36;4.72;;;2.13;;
49123;SDS011;48506;48.202;16.274;2023-04-12T03:54:08;3.80;;;2.65;;
49123;SDS011;48506;48.202;16.274;2023-04-12T03:56:34;5.45;;;2.33;;
49123;SDS011;48506;48.202;16.274;2023-04-12T03:59:00;3.10;;;2.20;;
49123;SDS011;48506;48.202;16.274;2023-04-12T04:01:26;4.00;;;2.42;;
49123;SDS011;48506;48.202;16.274;2023-04-12T04:03:52;3.67;;;2.17;;
49123;SDS011;48506;48.202;16.274;2023-04-12T04:06:18;3.83;;;2.22;;
49123;SDS011;48506;48.202;16.274;2023-04-12T04:08:44;3.78;;;2.25;;
49123;SDS011;48506;48.202;16.274;2023-04-12T04:11:11;3.80;;;2.50;;
49123;SDS011;48506;48.202;16.274;2023-04-12T04:13:38;7.70;;;2.40;;
49123;SDS011;48506;48.202;16.274;2023-04-12T04:16:04;3.70;;;2.38;;
49123;SDS011;48506;48.202;16.274;2023-04-12T04:18:31;4.95;;;2.42;;
49123;SDS011;48506;48.202;16.274;2023-04-12T04:20:59;3.30;;;2.50;;
49123;SDS011;48506;48.202;16.274;2023-04-12T04:23:25;6.55;;;3.00;;
49123;SDS011;48506;48.202;16.274;2023-04-12T04:25:53;6.40;;;3.30;;
49123;SDS011;48506;48.202;16.274;2023-04-12T04:28:19;4.75;;;3.05;;
49123;SDS011;48506;48.202;16.274;2023-04-12T04:30:46;6.05;;;3.20;;
49123;SDS011;48506;48.202;16.274;2023-04-12T04:33:12;6.93;;;3.28;;
49123;SDS011;48506;48.202;16.274;2023-04-12T04:35:40;6.30;;;3.45;;
49123;SDS011;48506;48.202;16.274;2023-04-12T04:38:07;4.80;;;2.85;;
49123;SDS011;48506;48.202;16.274;2023-04-12T04:40:37;7.47;;;3.75;;
49123;SDS011;48506;48.202;16.274;2023-04-12T04:43:03;6.35;;;3.42;;
49123;SDS011;48506;48.202;16.274;2023-04-12T04:45:29;6.78;;;3.80;;
49123;SDS011;48506;48.202;16.274;2023-04-12T04:47:56;7.35;;;4.10;;
49123;SDS011;48506;48.202;16.274;2023-04-12T04:50:23;10.60;;;3.10;;
49123;SDS011;48506;48.202;16.274;2023-04-12T04:52:50;6.75;;;3.53;;
49123;SDS011;48506;48.202;16.274;2023-04-12T04:55:17;4.97;;;2.85;;
49123;SDS011;48506;48.202;16.274;2023-04-12T04:57:43;6.28;;;2.63;;
49123;SDS011;48506;48.202;16.274;2023-04-12T05:00:09;4.85;;;2.72;;
49123;SDS011;48506;48.202;16.274;2023-04-12T05:02:36;4.47;;;2.75;;
49123;SDS011;48506;48.202;16.274;2023-04-12T05:05:07;4.60;;;2.58;;
49123;SDS011;48506;48.202;16.274;2023-04-12T05:07:34;4.75;;;2.90;;
49123;SDS011;48506;48.202;16.274;2023-04-12T05:10:02;6.32;;;2.83;;
49123;SDS011;48506;48.202;16.274;2023-04-12T05:12:29;3.85;;;2.63;;
49123;SDS011;48506;48.202;16.274;2023-04-12T05:14:55;5.03;;;2.55;;
49123;SDS011;48506;48.202;16.274;2023-04-12T05:17:21;4.45;;;3.00;;
49123;SDS011;48506;48.202;16.274;2023-04-12T05:19:47;4.45;;;3.03;;
49123;SDS011;48506;48.202;16.274;2023-04-12T05:22:13;5.03;;;2.70;;
49123;SDS011;48506;48.202;16.274;2023-04-12T05:24:44;5.47;;;2.30;;
49123;SDS011;48506;48.202;16.274;2023-04-12T05:27:11;5.85;;;2.72;;
49123;SDS011;48506;48.202;16.274;2023-04-12T05:29:38;4.53;;;2.55;;
49123;SDS011;48506;48.202;16.274;2023-04-12T05:32:04;10.10;;;2.30;;
49123;SDS011;48506;48.202;16.274;2023-04-12T05:34:30;3.08;;;2.00;;
49123;SDS011;48506;48.202;16.274;2023-04-12T05:36:56;3.45;;;2.50;;
49123;SDS011;48506;48.202;16.274;2023-04-12T05:39:24;11.23;;;2.70;;
49123;SDS011;48506;48.202;16.274;2023-04-12T05:41:51;4.30;;;2.55;;
49123;SDS011;48506;48.202;16.274;2023-04-12T05:44:19;6.60;;;2.58;;
49123;SDS011;48506;48.202;16.274;2023-04-12T05:46:45;6.78;;;2.85;;
49123;SDS011;48506;48.202;16.274;2023-04-12T05:49:12;3.88;;;2.00;;
49123;SDS011;48506;48.202;16.274;2023-04-12T05:51:38;4.82;;;2.90;;
49123;SDS011;48506;48.202;16.274;2023-04-12T05:54:04;4.35;;;2.22;;
49123;SDS011;48506;48.202;16.274;2023-04-12T05:56:32;3.92;;;2.25;;
49123;SDS011;48506;48.202;16.274;2023-04-12T05:58:58;7.07;;;2.10;;
49123;SDS011;48506;48.202;16.274;2023-04-12T06:01:26;3.80;;;1.80;;
49123;SDS011;48506;48.202;16.274;2023-04-12T06:04:01;2.65;;;1.48;;
49123;SDS011;48506;48.202;16.274;2023-04-12T06:06:28;3.25;;;2.40;;
49123;SDS011;48506;48.202;16.274;2023-04-12T06:08:56;5.32;;;1.90;;
49123;SDS011;48506;48.202;16.274;2023-04-12T06:11:25;3.97;;;1.73;;
49123;SDS011;48506;48.202;16.274;2023-04-12T06:13:51;4.38;;;2.17;;
49123;SDS011;48506;48.202;16.274;2023-04-12T06:16:17;3.55;;;1.63;;
49123;SDS011;48506;48.202;16.274;2023-04-12T06:18:43;3.30;;;1.65;;
49123;SDS011;48506;48.202;16.274;2023-04-12T06:21:09;2.83;;;1.50;;
49123;SDS011;48506;48.202;16.274;2023-04-12T06:23:35;3.50;;;1.52;;
49123;SDS011;48506;48.202;16.274;2023-04-12T06:26:02;2.67;;;1.63;;
49123;SDS011;48506;48.202;16.274;2023-04-12T06:28:28;1.80;;;1.20;;
49123;SDS011;48506;48.202;16.274;2023-04-12T06:30:54;5.90;;;1.50;;
49123;SDS011;48506;48.202;16.274;2023-04-12T06:33:21;4.85;;;1.85;;
49123;SDS011;48506;48.202;16.274;2023-04-12T06:35:47;4.53;;;1.75;;
49123;SDS011;48506;48.202;16.274;2023-04-12T06:38:15;2.80;;;1.35;;
49123;SDS011;48506;48.202;16.274;2023-04-12T06:40:42;1.80;;;1.23;;
49123;SDS011;48506;48.202;16.274;2023-04-12T06:43:08;2.53;;;1.10;;
49123;SDS011;48506;48.202;16.274;2023-04-12T06:45:35;2.15;;;1.40;;
49123;SDS011;48506;48.202;16.274;2023-04-12T06:48:01;2.00;;;1.08;;
49123;SDS011;48506;48.202;16.274;2023-04-12T06:50:27;2.38;;;1.17;;
49123;SDS011;48506;48.202;16.274;2023-04-12T06:52:53;1.15;;;0.80;;
49123;SDS011;48506;48.202;16.274;2023-04-12T06:55:19;4.78;;;1.10;;
49123;SDS011;48506;48.202;16.274;2023-04-12T06:57:46;2.38;;;1.48;;
49123;SDS011;48506;48.202;16.274;2023-04-12T07:00:16;1.92;;;1.00;;
49123;SDS011;48506;48.202;16.274;2023-04-12T07:02:42;3.95;;;1.08;;
49123;SDS011;48506;48.202;16.274;2023-04-12T07:05:08;3.35;;;1.00;;
49123;SDS011;48506;48.202;16.274;2023-04-12T07:07:34;2.85;;;0.90;;
49123;SDS011;48506;48.202;16.274;2023-04-12T07:10:00;1.75;;;1.17;;
49123;SDS011;48506;48.202;16.274;2023-04-12T07:12:27;3.65;;;0.90;;
49123;SDS011;48506;48.202;16.274;2023-04-12T07:14:54;2.22;;;1.35;;
49123;SDS011;48506;48.202;16.274;2023-04-12T07:17:20;4.53;;;1.08;;
49123;SDS011;48506;48.202;16.274;2023-04-12T07:19:47;2.05;;;1.00;;
49123;SDS011;48506;48.202;16.274;2023-04-12T07:22:16;3.53;;;1.20;;
49123;SDS011;48506;48.202;16.274;2023-04-12T07:24:42;2.92;;;1.20;;
49123;SDS011;48506;48.202;16.274;2023-04-12T07:27:07;5.55;;;1.33;;
49123;SDS011;48506;48.202;16.274;2023-04-12T07:29:35;4.85;;;1.30;;
49123;SDS011;48506;48.202;16.274;2023-04-12T07:32:01;2.65;;;0.82;;
49123;SDS011;48506;48.202;16.274;2023-04-12T07:34:28;4.07;;;1.08;;
49123;SDS011;48506;48.202;16.274;2023-04-12T07:36:55;1.67;;;0.90;;
49123;SDS011;48506;48.202;16.274;2023-04-12T07:39:21;3.00;;;1.75;;
49123;SDS011;48506;48.202;16.274;2023-04-12T07:41:48;4.00;;;1.20;;
49123;SDS011;48506;48.202;16.274;2023-04-12T07:44:15;3.03;;;1.27;;
49123;SDS011;48506;48.202;16.274;2023-04-12T07:46:41;2.13;;;0.90;;
49123;SDS011;48506;48.202;16.274;2023-04-12T07:49:07;8.45;;;1.95;;
49123;SDS011;48506;48.202;16.274;2023-04-12T07:51:36;3.60;;;1.67;;
49123;SDS011;48506;48.202;16.274;2023-04-12T07:54:03;8.50;;;1.88;;
49123;SDS011;48506;48.202;16.274;2023-04-12T07:56:32;3.60;;;1.58;;
49123;SDS011;48506;48.202;16.274;2023-04-12T07:59:00;3.85;;;1.90;;
49123;SDS011;48506;48.202;16.274;2023-04-12T08:01:26;2.22;;;1.50;;
49123;SDS011;48506;48.202;16.274;2023-04-12T08:03:52;3.10;;;1.60;;
49123;SDS011;48506;48.202;16.274;2023-04-12T08:06:18;3.80;;;1.70;;
49123;SDS011;48506;48.202;16.274;2023-04-12T08:08:46;2.55;;;1.48;;
49123;SDS011;48506;48.202;16.274;2023-04-12T08:11:12;4.03;;;1.83;;
49123;SDS011;48506;48.202;16.274;2023-04-12T08:13:38;4.43;;;1.92;;
49123;SDS011;48506;48.202;16.274;2023-04-12T08:16:05;4.20;;;1.55;;
49123;SDS011;48506;48.202;16.274;2023-04-12T08:18:33;6.55;;;2.88;;
49123;SDS011;48506;48.202;16.274;2023-04-12T08:21:01;5.00;;;1.80;;
49123;SDS011;48506;48.202;16.274;2023-04-12T08:23:27;3.13;;;1.92;;
49123;SDS011;48506;48.202;16.274;2023-04-12T08:25:53;4.05;;;2.33;;
49123;SDS011;48506;48.202;16.274;2023-04-12T08:28:27;4.95;;;2.15;;
49123;SDS011;48506;48.202;16.274;2023-04-12T08:30:55;4.03;;;2.00;;
49123;SDS011;48506;48.202;16.274;2023-04-12T08:33:21;4.88;;;2.55;;
49123;SDS011;48506;48.202;16.274;2023-04-12T08:35:47;5.20;;;2.17;;
49123;SDS011;48506;48.202;16.274;2023-04-12T08:38:13;6.55;;;2.08;;
49123;SDS011;48506;48.202;16.274;2023-04-12T08:40:41;4.28;;;1.85;;
49123;SDS011;48506;48.202;16.274;2023-04-12T08:43:08;3.92;;;1.90;;
49123;SDS011;48506;48.202;16.274;2023-04-12T08:45:36;7.43;;;2.53;;
49123;SDS011;48506;48.202;16.274;2023-04-12T08:48:05;5.75;;;1.83;;
49123;SDS011;48506;48.202;16.274;2023-04-12T08:50:31;5.60;;;1.85;;
49123;SDS011;48506;48.202;16.274;2023-04-12T08:52:59;5.63;;;1.90;;
49123;SDS011;48506;48.202;16.274;2023-04-12T08:55:25;3.35;;;1.52;;
49123;SDS011;48506;48.202;16.274;2023-04-12T08:57:54;4.03;;;2.53;;
49123;SDS011;48506;48.202;16.274;2023-04-12T09:00:20;4.70;;;1.65;;
49123;SDS011;48506;48.202;16.274;2023-04-12T09:02:47;3.30;;;2.33;;
49123;SDS011;48506;48.202;16.274;2023-04-12T09:05:13;2.88;;;2.15;;
49123;SDS011;48506;48.202;16.274;2023-04-12T09:07:40;5.85;;;2.55;;
49123;SDS011;48506;48.202;16.274;2023-04-12T09:10:06;6.47;;;2.85;;
49123;SDS011;48506;48.202;16.274;2023-04-12T09:12:33;1.95;;;1.70;;
49123;SDS011;48506;48.202;16.274;2023-04-12T09:17:34;4.03;;;1.98;;
49123;SDS011;48506;48.202;16.274;2023-04-12T09:20:20;7.65;;;2.60;;
49123;SDS011;48506;48.202;16.274;2023-04-12T09:22:50;5.47;;;2.13;;
49123;SDS011;48506;48.202;16.274;2023-04-12T09:25:18;3.67;;;2.55;;
49123;SDS011;48506;48.202;16.274;2023-04-12T09:28:03;3.53;;;2.67;;
49123;SDS011;48506;48.202;16.274;2023-04-12T09:30:43;5.18;;;2.58;;
49123;SDS011;48506;48.202;16.274;2023-04-12T09:33:10;4.45;;;2.30;;
49123;SDS011;48506;48.202;16.274;2023-04-12T09:35:37;3.55;;;2.13;;
49123;SDS011;48506;48.202;16.274;2023-04-12T09:38:06;6.47;;;2.50;;
49123;SDS011;48506;48.202;16.274;2023-04-12T09:40:34;3.78;;;2.00;;
49123;SDS011;48506;48.202;16.274;2023-04-12T09:43:01;5.13;;;2.03;;
49123;SDS011;48506;48.202;16.274;2023-04-12T09:45:28;7.10;;;1.88;;
49123;SDS011;48506;48.202;16.274;2023-04-12T09:47:59;3.05;;;1.75;;
49123;SDS011;48506;48.202;16.274;2023-04-12T09:50:26;5.25;;;2.28;;
49123;SDS011;48506;48.202;16.274;2023-04-12T09:52:54;5.57;;;2.63;;
49123;SDS011;48506;48.202;16.274;2023-04-12T09:55:21;3.05;;;1.92;;
49123;SDS011;48506;48.202;16.274;2023-04-12T09:57:51;7.18;;;1.60;;
49123;SDS011;48506;48.202;16.274;2023-04-12T10:00:20;2.60;;;1.57;;
49123;SDS011;48506;48.202;16.274;2023-04-12T10:02:48;5.53;;;1.88;;
49123;SDS011;48506;48.202;16.274;2023-04-12T10:05:16;5.22;;;1.90;;
49123;SDS011;48506;48.202;16.274;2023-04-12T10:07:44;7.10;;;1.80;;
49123;SDS011;48506;48.202;16.274;2023-04-12T10:10:15;3.60;;;1.48;;
49123;SDS011;48506;48.202;16.274;2023-04-12T10:12:43;2.55;;;1.65;;
49123;SDS011;48506;48.202;16.274;2023-04-12T10:15:10;8.18;;;1.77;;
49123;SDS011;48506;48.202;16.274;2023-04-12T10:17:43;3.90;;;1.50;;
49123;SDS011;48506;48.202;16.274;2023-04-12T10:20:15;11.35;;;2.28;;
49123;SDS011;48506;48.202;16.274;2023-04-12T10:22:49;3.73;;;2.17;;
49123;SDS011;48506;48.202;16.274;2023-04-12T10:25:18;3.00;;;1.70;;
49123;SDS011;48506;48.202;16.274;2023-04-12T10:27:46;4.00;;;2.10;;
49123;SDS011;48506;48.202;16.274;2023-04-12T10:30:28;6.63;;;2.63;;
49123;SDS011;48506;48.202;16.274;2023-04-12T10:35:29;3.22;;;2.50;;
49123;SDS011;48506;48.202;16.274;2023-04-12T10:38:14;5.43;;;2.10;;
49123;SDS011;48506;48.202;16.274;2023-04-12T10:43:50;3.75;;;1.85;;
49123;SDS011;48506;48.202;16.274;2023-04-12T10:49:12;3.15;;;1.85;;
49123;SDS011;48506;48.202;16.274;2023-04-12T10:51:39;3.17;;;2.03;;
49123;SDS011;48506;48.202;16.274;2023-04-12T10:54:30;4.18;;;2.00;;
49123;SDS011;48506;48.202;16.274;2023-04-12T10:57:03;5.15;;;2.25;;
49123;SDS011;48506;48.202;16.274;2023-04-12T11:02:23;4.72;;;2.05;;
49123;SDS011;48506;48.202;16.274;2023-04-12T11:05:04;4.20;;;1.80;;
49123;SDS011;48506;48.202;16.274;2023-04-12T11:07:38;3.38;;;1.67;;
49123;SDS011;48506;48.202;16.274;2023-04-12T11:10:15;3.38;;;1.48;;
49123;SDS011;48506;48.202;16.274;2023-04-12T11:12:47;4.10;;;1.88;;
49123;SDS011;48506;48.202;16.274;2023-04-12T11:15:16;3.85;;;1.48;;
49123;SDS011;48506;48.202;16.274;2023-04-12T11:17:53;3.65;;;1.67;;
49123;SDS011;48506;48.202;16.274;2023-04-12T11:20:21;3.38;;;1.52;;
49123;SDS011;48506;48.202;16.274;2023-04-12T11:22:51;3.13;;;1.23;;
49123;SDS011;48506;48.202;16.274;2023-04-12T11:25:19;3.20;;;1.67;;
49123;SDS011;48506;48.202;16.274;2023-04-12T11:27:51;4.50;;;1.45;;
49123;SDS011;48506;48.202;16.274;2023-04-12T11:30:18;2.97;;;1.50;;
49123;SDS011;48506;48.202;16.274;2023-04-12T11:32:45;3.92;;;2.03;;
49123;SDS011;48506;48.202;16.274;2023-04-12T11:35:13;4.07;;;1.58;;
49123;SDS011;48506;48.202;16.274;2023-04-12T11:37:48;5.53;;;2.70;;
49123;SDS011;48506;48.202;16.274;2023-04-12T11:40:15;2.55;;;1.45;;
49123;SDS011;48506;48.202;16.274;2023-04-12T11:42:42;3.08;;;1.65;;
49123;SDS011;48506;48.202;16.274;2023-04-12T11:45:08;4.50;;;1.70;;
49123;SDS011;48506;48.202;16.274;2023-04-12T11:47:40;6.82;;;2.03;;
49123;SDS011;48506;48.202;16.274;2023-04-12T11:50:10;4.60;;;1.60;;
49123;SDS011;48506;48.202;16.274;2023-04-12T11:52:36;4.38;;;1.88;;
49123;SDS011;48506;48.202;16.274;2023-04-12T11:55:03;4.45;;;1.75;;
49123;SDS011;48506;48.202;16.274;2023-04-12T11:57:37;3.10;;;1.52;;
49123;SDS011;48506;48.202;16.274;2023-04-12T12:00:03;2.15;;;1.33;;
49123;SDS011;48506;48.202;16.274;2023-04-12T12:02:31;2.03;;;1.70;;
49123;SDS011;48506;48.202;16.274;2023-04-12T12:05:00;3.05;;;1.48;;
49123;SDS011;48506;48.202;16.274;2023-04-12T12:07:26;1.75;;;1.20;;
49123;SDS011;48506;48.202;16.274;2023-04-12T12:09:52;4.90;;;1.48;;
49123;SDS011;48506;48.202;16.274;2023-04-12T12:12:20;3.65;;;1.50;;
49123;SDS011;48506;48.202;16.274;2023-04-12T12:14:48;3.22;;;1.85;;
49123;SDS011;48506;48.202;16.274;2023-04-12T12:17:14;3.85;;;1.80;;
49123;SDS011;48506;48.202;16.274;2023-04-12T12:19:42;4.20;;;1.67;;
49123;SDS011;48506;48.202;16.274;2023-04-12T12:24:36;6.75;;;1.65;;
49123;SDS011;48506;48.202;16.274;2023-04-12T12:27:04;3.60;;;1.77;;
49123;SDS011;48506;48.202;16.274;2023-04-12T12:29:34;3.95;;;1.50;;
49123;SDS011;48506;48.202;16.274;2023-04-12T12:32:02;4.57;;;1.88;;
49123;SDS011;48506;48.202;16.274;2023-04-12T12:34:35;4.68;;;1.70;;
49123;SDS011;48506;48.202;16.274;2023-04-12T12:37:01;2.88;;;1.55;;
49123;SDS011;48506;48.202;16.274;2023-04-12T12:39:28;3.92;;;1.50;;
49123;SDS011;48506;48.202;16.274;2023-04-12T12:41:54;8.35;;;1.67;;
49123;SDS011;48506;48.202;16.274;2023-04-12T12:44:21;3.13;;;1.50;;
49123;SDS011;48506;48.202;16.274;2023-04-12T12:46:48;5.32;;;2.20;;
49123;SDS011;48506;48.202;16.274;2023-04-12T12:49:15;3.33;;;1.42;;
49123;SDS011;48506;48.202;16.274;2023-04-12T12:51:42;7.00;;;1.85;;
49123;SDS011;48506;48.202;16.274;2023-04-12T12:54:08;3.75;;;1.42;;
49123;SDS011;48506;48.202;16.274;2023-04-12T12:56:35;3.25;;;1.88;;
49123;SDS011;48506;48.202;16.274;2023-04-12T12:59:02;2.80;;;1.55;;
49123;SDS011;48506;48.202;16.274;2023-04-12T13:01:28;3.88;;;1.60;;
49123;SDS011;48506;48.202;16.274;2023-04-12T13:03:54;5.85;;;1.88;;
49123;SDS011;48506;48.202;16.274;2023-04-12T13:06:21;3.38;;;2.15;;
49123;SDS011;48506;48.202;16.274;2023-04-12T13:08:47;4.53;;;2.20;;
49123;SDS011;48506;48.202;16.274;2023-04-12T13:11:13;4.45;;;2.05;;
49123;SDS011;48506;48.202;16.274;2023-04-12T13:13:39;4.50;;;2.03;;
49123;SDS011;48506;48.202;16.274;2023-04-12T13:16:06;3.72;;;2.33;;
49123;SDS011;48506;48.202;16.274;2023-04-12T13:18:32;5.03;;;2.17;;
49123;SDS011;48506;48.202;16.274;2023-04-12T13:20:59;6.40;;;2.17;;
49123;SDS011;48506;48.202;16.274;2023-04-12T13:23:25;5.38;;;2.63;;
49123;SDS011;48506;48.202;16.274;2023-04-12T13:25:53;3.70;;;1.90;;
49123;SDS011;48506;48.202;16.274;2023-04-12T13:28:19;3.33;;;1.48;;
49123;SDS011;48506;48.202;16.274;2023-04-12T13:30:46;6.05;;;2.50;;
49123;SDS011;48506;48.202;16.274;2023-04-12T13:33:13;5.00;;;1.95;;
49123;SDS011;48506;48.202;16.274;2023-04-12T13:35:39;3.20;;;2.00;;
49123;SDS011;48506;48.202;16.274;2023-04-12T13:38:06;5.90;;;1.95;;
49123;SDS011;48506;48.202;16.274;2023-04-12T13:40:33;3.20;;;1.80;;
49123;SDS011;48506;48.202;16.274;2023-04-12T13:42:59;5.60;;;2.65;;
49123;SDS011;48506;48.202;16.274;2023-04-12T13:45:27;5.10;;;2.08;;
49123;SDS011;48506;48.202;16.274;2023-04-12T13:47:53;3.78;;;1.67;;
49123;SDS011;48506;48.202;16.274;2023-04-12T13:50:20;5.53;;;1.90;;
49123;SDS011;48506;48.202;16.274;2023-04-12T13:52:46;3.78;;;1.60;;
49123;SDS011;48506;48.202;16.274;2023-04-12T13:55:14;4.88;;;2.13;;
49123;SDS011;48506;48.202;16.274;2023-04-12T13:57:42;4.60;;;1.42;;
49123;SDS011;48506;48.202;16.274;2023-04-12T14:00:08;6.20;;;2.55;;
49123;SDS011;48506;48.202;16.274;2023-04-12T14:02:35;5.05;;;2.08;;
49123;SDS011;48506;48.202;16.274;2023-04-12T14:05:01;4.90;;;1.50;;
49123;SDS011;48506;48.202;16.274;2023-04-12T14:07:28;2.65;;;1.60;;
49123;SDS011;48506;48.202;16.274;2023-04-12T14:09:54;5.20;;;1.35;;
49123;SDS011;48506;48.202;16.274;2023-04-12T14:12:21;3.90;;;1.58;;
49123;SDS011;48506;48.202;16.274;2023-04-12T14:14:47;3.88;;;2.15;;
49123;SDS011;48506;48.202;16.274;2023-04-12T14:17:13;5.88;;;1.80;;
49123;SDS011;48506;48.202;16.274;2023-04-12T14:19:39;4.60;;;1.75;;
49123;SDS011;48506;48.202;16.274;2023-04-12T14:22:05;3.95;;;2.20;;
49123;SDS011;48506;48.202;16.274;2023-04-12T14:24:32;7.75;;;3.65;;
49123;SDS011;48506;48.202;16.274;2023-04-12T14:26:58;8.23;;;3.00;;
49123;SDS011;48506;48.202;16.274;2023-04-12T14:29:25;4.80;;;2.85;;
49123;SDS011;48506;48.202;16.274;2023-04-12T14:31:53;6.88;;;2.90;;
49123;SDS011;48506;48.202;16.274;2023-04-12T14:34:19;4.85;;;3.15;;
49123;SDS011;48506;48.202;16.274;2023-04-12T14:36:45;5.43;;;2.78;;
49123;SDS011;48506;48.202;16.274;2023-04-12T14:39:11;7.85;;;3.08;;
49123;SDS011;48506;48.202;16.274;2023-04-12T14:41:39;8.63;;;3.55;;
49123;SDS011;48506;48.202;16.274;2023-04-12T14:44:05;4.97;;;3.00;;
49123;SDS011;48506;48.202;16.274;2023-04-12T14:46:32;6.30;;;3.22;;
49123;SDS011;48506;48.202;16.274;2023-04-12T14:48:59;5.55;;;3.30;;
49123;SDS011;48506;48.202;16.274;2023-04-12T14:51:25;5.38;;;3.10;;
49123;SDS011;48506;48.202;16.274;2023-04-12T14:53:52;7.95;;;3.72;;
49123;SDS011;48506;48.202;16.274;2023-04-12T14:56:21;6.60;;;3.83;;
49123;SDS011;48506;48.202;16.274;2023-04-12T14:58:50;5.55;;;3.83;;
49123;SDS011;48506;48.202;16.274;2023-04-12T15:01:21;6.82;;;4.13;;
49123;SDS011;48506;48.202;16.274;2023-04-12T15:03:49;6.82;;;3.50;;
49123;SDS011;48506;48.202;16.274;2023-04-12T15:06:17;10.15;;;3.78;;